66R

Robert R Wells Jr Airport

Columbus, Texas, USA
METAR K66R 151855Z AUTO 17007KT 10SM CLR 22/16 A2978 RMK AO2 T02200164
Observed Flight Rules
Feb-15 @ 18:55 UTC (14 minutes ago) Visual Flight Rules
Wind Visibility Clouds
170° at 7 knots 10 miles
  • Clear skies
Temperatures Readings
Current 22°C / 72°F
Dewpoint 16°C / 61°F
Humidity 69%
Altimeter 29.78" Hg
Pressure 1008.42 hPa
Elevation 74
METAR K66R 151855Z AUTO 17007KT 10SM CLR 22/16 A2978 RMK AO2 T02200164
Observed Flight Rules
Feb-15 @ 18:55 UTC
(14 minutes ago)
VFR
Wind Visibility
170° at 7 knots 10 miles
Clouds
  • Clear skies
Temperature Dewpoint
22°C / 72°F 16°C / 61°F
Humidity Altimeter Pressure
69% 29.78" Hg 1008.42 hPa